Latest Weather Observations for Dum In Mirrie

IDD60901

Issued at 5:21 pm CST Thursday 28 May 2015 (issued every 10 minutes, with the page automatically refreshed every 10 minutes)

About weather observations | Map of Darwin area stations | Latest observations for Darwin area | Other Formats
Station Details ID: 014277 Name: DUM IN MIRRIE AIRSTRIP Lat: -12.63 Lon: 130.37 Height: 3.5 m
Data from the previous 72 hours. | See also: Recent months at Dum In Mirrie
Date/Time
CST
Tmp

°C
App
Tmp
°C
Dew
Point
°C
Rel
Hum
%
Delta-T

°C
Wind Press
QNH
hPa
Press
MSL
hPa
Rain
since
9 am
mm
Dir
 
Spd
km/h
Gust
km/h
Spd
kts
Gust
kts
28/05:00pm 29.3 32.4 21.5 63 5.2 N 7 13 4 7 1010.6 1010.6 0.0
28/04:30pm 29.4 31.8 21.6 63 5.2 N 11 17 6 9 1010.6 1010.6 0.0
28/04:00pm 30.0 32.7 22.2 63 5.3 N 11 19 6 10 1010.3 1010.3 0.0
28/03:30pm 30.0 33.2 22.4 63 5.2 NNW 9 17 5 9 1010.4 1010.4 0.0
28/03:00pm 30.5 33.7 22.4 62 5.5 NW 9 15 5 8 1010.5 1010.5 0.0
28/02:30pm 30.3 33.2 22.5 63 5.3 WNW 11 17 6 9 1010.7 1010.7 0.0
28/02:00pm 30.3 33.3 22.7 64 5.2 N 11 20 6 11 1010.9 1010.9 0.0
28/01:30pm 32.3 34.3 21.5 53 7.3 NE 13 19 7 10 1011.6 1011.6 0.0
28/01:00pm 31.3 33.5 21.2 55 6.8 NE 11 19 6 10 1012.0 1012.0 0.0
28/12:30pm 31.2 33.9 21.4 56 6.6 ENE 9 17 5 9 1012.7 1012.7 0.0
28/12:00pm 30.4 32.8 20.9 57 6.3 E 9 13 5 7 1013.3 1013.3 0.0
28/11:30am 30.1 32.9 21.5 60 5.8 ESE 9 13 5 7 1013.7 1013.7 0.0
28/11:00am 29.5 32.2 22.2 65 4.9 ENE 11 17 6 9 1014.0 1014.0 0.0
28/10:30am 29.3 32.2 22.5 67 4.6 ENE 11 15 6 8 1014.0 1014.0 0.0
28/10:00am 28.4 31.9 22.2 69 4.2 E 7 13 4 7 1014.0 1014.0 0.0
28/09:30am 27.7 32.3 23.1 76 3.1 ESE 4 7 2 4 1013.8 1013.8 0.0
28/09:00am 26.4 30.5 22.9 81 2.4 ESE 6 7 3 4 1013.7 1013.7 0.0
28/08:30am 25.5 30.2 23.4 88 1.4 ESE 4 6 2 3 1013.5 1013.5 0.0
28/08:00am 24.3 29.7 23.8 97 0.3 ESE 2 6 1 3 1013.1 1013.1 0.0
28/07:30am 23.8 28.6 23.5 98 0.2 ESE 4 4 2 2 1012.9 1012.9 0.0
28/07:00am 23.6 28.3 23.3 98 0.2 ESE 4 6 2 3 1012.5 1012.5 0.0
28/06:30am 23.8 28.6 23.5 98 0.2 SE 4 7 2 4 1012.4 1012.4 0.0
28/06:00am 23.9 28.8 23.6 98 0.2 SE 4 7 2 4 1012.1 1012.1 0.0
28/05:30am 23.8 28.5 23.3 97 0.3 SE 4 6 2 3 1011.8 1011.8 0.0
28/05:00am 24.2 29.1 23.7 97 0.3 SE 4 7 2 4 1011.6 1011.6 0.0
28/04:30am 24.0 28.2 23.1 95 0.6 SSE 6 11 3 6 1011.4 1011.4 0.0
28/04:00am 24.0 28.1 23.0 94 0.7 SSE 6 9 3 5 1011.3 1011.3 0.0
28/03:30am 23.9 28.4 22.9 94 0.7 SSE 4 6 2 3 1011.5 1011.5 0.0
28/03:00am 24.0 28.4 22.8 93 0.8 SSE 4 7 2 4 1011.8 1011.8 0.0
28/02:30am 24.0 27.9 22.6 92 0.9 SSE 6 9 3 5 1012.0 1012.0 0.0
28/02:00am 23.6 27.9 22.6 94 0.7 SE 4 7 2 4 1012.2 1012.2 0.0
28/01:30am 22.5 26.5 21.3 93 0.8 SSE 2 7 1 4 1012.3 1012.3 0.0
28/01:00am 21.9 25.9 20.5 92 0.9 CALM 0 0 0 0 1012.5 1012.5 0.0
28/12:30am 22.1 26.3 20.9 93 0.8 CALM 0 0 0 0 1012.7 1012.7 0.0
28/12:00am 21.9 25.8 20.4 91 1.0 CALM 0 2 0 1 1012.8 1012.8 0.0
 
Date/Time
CST
Tmp

°C
App
Tmp
°C
Dew
Point
°C
Rel
Hum
%
Delta-T

°C
Wind Press
QNH
hPa
Press
MSL
hPa
Rain
since
9 am
mm
Dir
 
Spd
km/h
Gust
km/h
Spd
kts
Gust
kts
27/11:30pm 22.4 26.2 20.9 91 1.0 SSE 2 2 1 1 1012.9 1012.9 0.0
27/11:00pm 22.5 26.1 20.6 89 1.2 SSE 2 4 1 2 1013.0 1013.0 0.0
27/10:30pm 22.9 27.1 21.0 89 1.2 CALM 0 0 0 0 1012.9 1012.9 0.0
27/10:00pm 22.8 26.6 20.1 85 1.7 CALM 0 0 0 0 1012.9 1012.9 0.0
27/09:30pm 23.3 27.3 20.6 85 1.8 CALM 0 0 0 0 1012.7 1012.7 0.0
27/09:00pm 23.7 27.4 20.0 80 2.4 CALM 0 0 0 0 1012.4 1012.4 0.0
27/08:30pm 24.7 28.0 20.0 75 3.0 ENE 2 2 1 1 1012.2 1012.2 0.0
27/08:00pm 26.2 29.4 20.5 71 3.7 NE 4 7 2 4 1011.9 1011.9 0.0
27/07:30pm 26.8 30.3 20.4 68 4.2 E 2 6 1 3 1011.6 1011.6 0.0
27/07:00pm 27.6 30.3 20.7 66 4.6 NNE 7 15 4 8 1011.1 1011.1 0.0
27/06:30pm 28.0 30.0 20.8 65 4.8 NE 11 17 6 9 1010.6 1010.6 0.0
27/06:00pm 28.6 30.1 20.6 62 5.3 NNE 13 22 7 12 1010.3 1010.3 0.0
27/05:30pm 29.2 30.4 20.6 59 5.7 NNE 15 26 8 14 1010.2 1010.2 0.0
27/05:00pm 29.4 30.0 21.1 61 5.5 NNE 19 28 10 15 1010.0 1010.0 0.0
27/04:30pm 29.7 30.8 21.9 63 5.3 NNE 19 30 10 16 1010.0 1010.0 0.0
27/04:00pm 30.2 31.9 21.6 60 5.8 NNE 15 24 8 13 1010.0 1010.0 0.0
27/03:30pm 30.6 32.4 21.9 59 5.9 N 15 22 8 12 1010.1 1010.1 0.0
27/03:00pm 30.6 32.2 22.2 61 5.7 N 17 24 9 13 1010.2 1010.2 0.0
27/02:30pm 31.2 34.0 23.0 61 5.6 N 13 22 7 12 1010.5 1010.5 0.0
27/02:00pm 33.3 33.9 18.6 41 9.6 ENE 13 20 7 11 1010.9 1010.9 0.0
27/01:30pm 32.7 34.0 19.2 44 8.9 NE 11 20 6 11 1011.4 1011.4 0.0
27/01:00pm 32.3 33.2 19.2 46 8.6 ENE 13 20 7 11 1012.0 1012.0 0.0
27/12:30pm 32.3 33.3 20.2 48 8.0 ENE 15 28 8 15 1012.6 1012.6 0.0
27/12:00pm 31.5 32.9 20.4 51 7.4 ENE 13 20 7 11 1013.1 1013.1 0.0
27/11:30am 31.1 32.3 20.7 54 6.9 E 15 22 8 12 1013.5 1013.5 0.0
27/11:00am 30.2 33.3 22.1 62 5.5 E 9 19 5 10 1013.8 1013.8 0.0
27/10:30am 29.9 32.7 22.3 63 5.2 ENE 11 17 6 9 1014.2 1014.2 0.0
27/10:00am 28.8 31.3 21.8 66 4.7 E 11 19 6 10 1014.4 1014.4 0.0
27/09:30am 27.8 31.3 22.1 71 3.8 ESE 7 11 4 6 1014.4 1014.4 0.0
27/09:00am 27.0 30.5 22.2 75 3.2 E 7 11 4 6 1014.2 1014.2 0.0
27/08:30am 26.0 30.0 22.7 82 2.2 E 6 9 3 5 1013.9 1013.9 0.0
27/08:00am 24.4 28.8 22.8 91 1.1 ESE 4 6 2 3 1013.4 1013.4 0.0
27/07:30am 23.2 27.4 22.4 95 0.5 ESE 4 6 2 3 1013.0 1013.0 0.0
27/07:00am 23.3 27.4 22.3 94 0.7 SE 4 6 2 3 1012.7 1012.7 0.0
27/06:30am 23.4 27.5 22.2 93 0.8 ESE 4 6 2 3 1012.7 1012.7 0.0
27/06:00am 23.8 28.2 22.8 94 0.7 SE 4 7 2 4 1012.4 1012.4 0.0
27/05:30am 24.0 28.5 23.0 94 0.7 SE 4 6 2 3 1012.2 1012.2 0.0
27/05:00am 24.0 28.8 22.8 93 0.8 SE 2 6 1 3 1012.0 1012.0 0.0
27/04:30am 24.1 28.6 22.9 93 0.8 SE 4 6 2 3 1012.2 1012.2 0.0
27/04:00am 24.1 28.4 22.7 92 0.9 SSE 4 6 2 3 1012.3 1012.3 0.0
27/03:30am 24.2 28.5 22.6 91 1.1 SE 4 6 2 3 1012.7 1012.7 0.0
27/03:00am 24.3 29.0 22.6 90 1.1 SE 2 6 1 3 1013.1 1013.1 0.0
27/02:30am 24.6 29.0 22.8 90 1.2 SE 4 6 2 3 1013.5 1013.5 0.0
27/02:00am 24.6 29.0 22.8 90 1.2 SSE 4 6 2 3 1013.6 1013.6 0.0
27/01:30am 24.7 29.1 22.8 89 1.3 S 4 6 2 3 1013.9 1013.9 0.0
27/01:00am 24.9 29.4 23.0 89 1.3 SSE 4 7 2 4 1014.2 1014.2 0.0
27/12:30am 24.9 29.5 23.1 90 1.2 SSE 4 6 2 3 1014.3 1014.3 0.0
27/12:00am 25.1 29.7 23.2 89 1.3 SSE 4 6 2 3 1014.3 1014.3 0.0
 
Date/Time
CST
Tmp

°C
App
Tmp
°C
Dew
Point
°C
Rel
Hum
%
Delta-T

°C
Wind Press
QNH
hPa
Press
MSL
hPa
Rain
since
9 am
mm
Dir
 
Spd
km/h
Gust
km/h
Spd
kts
Gust
kts
26/11:30pm 25.4 30.5 24.0 92 1.0 SSE 4 9 2 5 1014.7 1014.7 0.0
26/11:00pm 25.0 30.2 23.6 92 1.0 S 2 4 1 2 1014.5 1014.5 0.0
26/10:30pm 24.7 29.6 23.1 91 1.1 S 2 4 1 2 1014.4 1014.4 0.0
26/10:00pm 24.7 30.1 23.3 92 1.0 CALM 0 2 0 1 1014.5 1014.5 0.0
26/09:30pm 24.3 29.4 22.6 90 1.1 CALM 0 0 0 0 1014.3 1014.3 0.0
26/09:00pm 24.6 29.7 22.7 89 1.3 CALM 0 0 0 0 1014.2 1014.2 0.0
26/08:30pm 24.9 29.4 22.2 85 1.8 SSW 2 4 1 2 1014.1 1014.1 0.0
26/08:00pm 25.1 29.9 22.2 84 1.9 CALM 0 0 0 0 1013.7 1013.7 0.0
26/07:30pm 25.2 29.8 21.7 81 2.3 CALM 0 0 0 0 1013.3 1013.3 0.0
26/07:00pm 26.0 30.2 21.7 77 2.9 NNW 2 4 1 2 1013.0 1013.0 0.0
26/06:30pm 27.6 32.6 22.5 74 3.4 CALM 0 0 0 0 1012.7 1012.7 0.0
26/06:00pm 28.4 32.1 22.6 71 3.9 N 7 13 4 7 1012.2 1012.2 0.0
26/05:30pm 28.9 32.2 22.6 69 4.3 N 9 17 5 9 1011.8 1011.8 0.0
26/05:00pm 29.6 32.6 22.6 66 4.8 N 11 19 6 10 1011.7 1011.7 0.0
26/04:30pm 29.8 31.9 21.7 61 5.5 N 13 22 7 12 1011.6 1011.6 0.0
26/04:00pm 30.3 32.5 21.9 60 5.7 N 13 28 7 15 1011.5 1011.5 0.0
26/03:30pm 30.3 32.4 21.7 60 5.8 N 13 24 7 13 1011.7 1011.7 0.0
26/03:00pm 30.2 31.7 21.3 59 6.0 N 15 24 8 13 1012.0 1012.0 0.0
26/02:30pm 30.4 31.9 21.2 58 6.2 N 15 24 8 13 1012.2 1012.2 0.0
26/02:00pm 31.5 33.7 21.1 54 7.0 N 11 17 6 9 1012.6 1012.6 0.0
26/01:30pm 32.7 33.8 18.8 43 9.1 NE 11 17 6 9 1013.0 1013.0 0.0
26/01:00pm 32.3 33.6 19.2 46 8.6 ENE 11 17 6 9 1013.5 1013.5 0.0
26/12:30pm 31.4 32.0 19.4 49 7.9 ENE 15 22 8 12 1014.1 1014.1 0.0
26/12:00pm 31.6 32.4 19.9 50 7.7 ENE 15 24 8 13 1014.7 1014.7 0.0
26/11:30am 30.6 31.9 20.8 56 6.5 E 15 22 8 12 1015.1 1015.1 0.0
26/11:00am 29.9 31.4 20.5 57 6.2 E 13 19 7 10 1015.5 1015.5 0.0
26/10:30am 28.9 30.2 20.1 59 5.8 E 13 22 7 12 1015.8 1015.8 0.0
26/10:00am 28.5 29.6 19.7 59 5.7 E 13 22 7 12 1016.0 1016.0 0.0
26/09:30am 27.6 29.3 19.4 61 5.3 E 9 17 5 9 1015.9 1015.9 0.0
26/09:00am 26.3 27.7 18.7 63 4.8 ESE 9 15 5 8 1016.0 1016.0 0.0
26/08:30am 25.3 27.2 18.5 66 4.3 ESE 6 9 3 5 1015.9 1015.9 0.0
26/08:00am 23.9 25.5 17.9 69 3.8 E 6 9 3 5 1015.7 1015.7 0.0
26/07:30am 22.0 24.1 18.2 79 2.4 ESE 4 6 2 3 1015.3 1015.3 0.0
26/07:00am 20.9 23.0 18.1 84 1.7 ESE 4 6 2 3 1014.9 1014.9 0.0
26/06:30am 20.6 23.2 18.5 88 1.3 ESE 2 6 1 3 1014.8 1014.8 0.0
26/06:00am 21.0 23.8 18.8 87 1.4 SE 2 6 1 3 1014.3 1014.3 0.0
26/05:30am 21.7 24.1 18.9 84 1.8 SSE 4 6 2 3 1014.0 1014.0 0.0
26/05:00am 21.8 24.9 19.4 86 1.5 S 2 6 1 3 1014.1 1014.1 0.0
26/04:30am 22.2 25.5 19.9 87 1.5 S 2 6 1 3 1014.0 1014.0 0.0
26/04:00am 22.3 25.4 20.2 88 1.4 S 4 7 2 4 1013.9 1013.9 0.0
26/03:30am 22.4 25.5 20.3 88 1.4 SSE 4 7 2 4 1014.1 1014.1 0.0
26/03:00am 21.8 24.9 20.3 91 1.0 SSE 4 6 2 3 1014.3 1014.3 0.0
26/01:30am 23.8 28.4 21.7 88 1.4 CALM 0 2 0 1 1015.2 1015.2 0.0
26/01:00am 24.3 29.0 22.6 90 1.1 S 2 6 1 3 1015.4 1015.4 0.0
26/12:30am 24.5 29.4 23.1 92 0.9 S 2 4 1 2 1015.6 1015.6 0.0
26/12:00am 24.7 29.7 23.8 95 0.6 S 4 6 2 3 1015.8 1015.8 0.0
 
Date/Time
CST
Tmp

°C
App
Tmp
°C
Dew
Point
°C
Rel
Hum
%
Delta-T

°C
Wind Press
QNH
hPa
Press
MSL
hPa
Rain
since
9 am
mm
Dir
 
Spd
km/h
Gust
km/h
Spd
kts
Gust
kts
25/11:30pm 23.4 28.1 22.0 92 0.9 CALM 0 2 0 1 1015.8 1015.8 0.0
25/11:00pm 23.5 28.0 21.6 89 1.3 CALM 0 0 0 0 1015.8 1015.8 0.0
25/10:30pm 24.0 28.5 21.5 86 1.6 CALM 0 2 0 1 1015.9 1015.9 0.0
25/10:00pm 25.1 29.9 22.2 84 1.9 CALM 0 4 0 2 1015.9 1015.9 0.0
25/09:30pm 24.9 29.7 22.2 85 1.8 CALM 0 0 0 0 1015.7 1015.7 0.0
25/09:00pm 24.7 29.4 22.0 85 1.8 CALM 0 0 0 0 1015.4 1015.4 0.0
25/08:30pm 23.9 28.1 21.0 84 1.9 CALM 0 0 0 0 1014.9 1014.9 0.0
25/08:00pm 23.8 27.5 20.7 83 2.0 N 2 4 1 2 1014.5 1014.5 0.0
25/07:30pm 24.9 29.0 20.8 78 2.7 CALM 0 0 0 0 1014.1 1014.1 0.0
25/07:00pm 26.1 29.6 21.1 74 3.3 NNE 4 6 2 3 1013.7 1013.7 0.0
25/06:30pm 27.1 30.7 21.2 70 3.9 NNE 4 9 2 5 1013.6 1013.6 0.0
25/06:00pm 28.1 31.6 21.1 65 4.6 NNE 4 11 2 6 1013.4 1013.4 0.0
25/05:30pm 28.7 31.3 21.2 64 5.0 NNE 9 15 5 8 1013.0 1013.0 0.0

Latest Capital City Observations: Canberra | Sydney | Melbourne | Brisbane | Adelaide | Perth | Hobart | Darwin

Other Formats:

Comma delimited format used in spreadsheet applications
http://www.bom.gov.au/fwo/IDD60901/IDD60901.94116.axf

JavaScript Object Notation format (JSON) in row-major order
http://www.bom.gov.au/fwo/IDD60901/IDD60901.94116.json